FFT1234 KILG-KISP
Flight info
| Callsign | FFT1234 |
|---|---|
| Flight time | 0h 36m |
| Altitude | 17000 |
| Route | DITCH T416 DRIFT T320 SARDI CCC |
| Aircraft | A321/M-SDE3FGHIRWY/LB1 |
Departure
| Time | 2026-04-29 23:43 |
|---|---|
| Airport | Wilmington Airport (KILG) |
Arrival
| Time | 2026-04-30 00:19 |
|---|---|
| Airport | Long Island MacArthur Airport (KISP) |
| Time | Latitude | Longitude | Altitude | Speed | Heading |
|---|---|---|---|---|---|
| 2026-04-29 23:31 | 39.67527 | -75.59843 | 88 ft | 0 kts | 221° |
| 2026-04-29 23:35 | 39.67536 | -75.59833 | 92 ft | 3 kts | 221° |
| 2026-04-29 23:35 | 39.67549 | -75.59817 | 89 ft | 3 kts | 221° |
| 2026-04-29 23:36 | 39.67563 | -75.59801 | 91 ft | 3 kts | 221° |
| 2026-04-29 23:36 | 39.67577 | -75.59785 | 90 ft | 3 kts | 221° |
| 2026-04-29 23:36 | 39.67578 | -75.59783 | 89 ft | 0 kts | 221° |
| 2026-04-29 23:38 | 39.67581 | -75.59808 | 86 ft | 7 kts | 278° |
| 2026-04-29 23:39 | 39.67622 | -75.59891 | 90 ft | 15 kts | 303° |
| 2026-04-29 23:39 | 39.67674 | -75.59993 | 88 ft | 13 kts | 311° |
| 2026-04-29 23:39 | 39.67728 | -75.60087 | 86 ft | 12 kts | 288° |
| 2026-04-29 23:39 | 39.67771 | -75.60155 | 89 ft | 10 kts | 353° |
| 2026-04-29 23:40 | 39.67877 | -75.60149 | 83 ft | 20 kts | 5° |
| 2026-04-29 23:40 | 39.68015 | -75.60134 | 83 ft | 20 kts | 6° |
| 2026-04-29 23:40 | 39.68151 | -75.60117 | 74 ft | 20 kts | 5° |
| 2026-04-29 23:40 | 39.68292 | -75.60101 | 70 ft | 21 kts | 5° |
| 2026-04-29 23:41 | 39.68476 | -75.60080 | 68 ft | 31 kts | 5° |
| 2026-04-29 23:41 | 39.68692 | -75.60055 | 66 ft | 31 kts | 5° |
| 2026-04-29 23:41 | 39.68801 | -75.60055 | 67 ft | 0 kts | 334° |
| 2026-04-29 23:42 | 39.68816 | -75.60126 | 63 ft | 14 kts | 256° |
| 2026-04-29 23:42 | 39.68741 | -75.60175 | 64 ft | 14 kts | 185° |
| 2026-04-29 23:42 | 39.68509 | -75.60200 | 67 ft | 72 kts | 185° |
| 2026-04-29 23:43 | 39.67807 | -75.60281 | 88 ft | 143 kts | 185° |
| 2026-04-29 23:43 | 39.66692 | -75.60405 | 580 ft | 164 kts | 182° |
| 2026-04-29 23:43 | 39.65575 | -75.60503 | 1653 ft | 157 kts | 181° |
| 2026-04-29 23:43 | 39.64464 | -75.60596 | 2210 ft | 168 kts | 182° |
| 2026-04-29 23:44 | 39.63227 | -75.60646 | 2350 ft | 186 kts | 180° |
| 2026-04-29 23:44 | 39.61923 | -75.60263 | 2464 ft | 210 kts | 151° |
| 2026-04-29 23:44 | 39.60975 | -75.58669 | 2680 ft | 246 kts | 110° |
| 2026-04-29 23:44 | 39.60925 | -75.56351 | 3293 ft | 266 kts | 86° |
| 2026-04-29 23:45 | 39.61334 | -75.53993 | 4034 ft | 275 kts | 78° |
| 2026-04-29 23:45 | 39.61915 | -75.51606 | 4836 ft | 279 kts | 75° |
| 2026-04-29 23:45 | 39.62545 | -75.49187 | 5575 ft | 284 kts | 75° |
| 2026-04-29 23:45 | 39.63174 | -75.46721 | 6295 ft | 290 kts | 75° |
| 2026-04-29 23:46 | 39.63779 | -75.44232 | 6970 ft | 295 kts | 76° |
| 2026-04-29 23:46 | 39.64379 | -75.41664 | 7694 ft | 298 kts | 76° |
| 2026-04-29 23:46 | 39.64966 | -75.39058 | 8396 ft | 302 kts | 77° |
| 2026-04-29 23:46 | 39.65548 | -75.36408 | 9118 ft | 307 kts | 77° |
| 2026-04-29 23:47 | 39.66125 | -75.33746 | 9798 ft | 311 kts | 77° |
| 2026-04-29 23:47 | 39.66720 | -75.30990 | 10221 ft | 325 kts | 77° |
| 2026-04-29 23:47 | 39.67346 | -75.28074 | 10356 ft | 348 kts | 77° |
| 2026-04-29 23:47 | 39.68017 | -75.24947 | 10477 ft | 370 kts | 77° |
| 2026-04-29 23:48 | 39.68727 | -75.21647 | 10696 ft | 386 kts | 77° |
| 2026-04-29 23:48 | 39.69450 | -75.18290 | 11201 ft | 393 kts | 76° |
| 2026-04-29 23:48 | 39.70194 | -75.14837 | 11783 ft | 398 kts | 76° |
| 2026-04-29 23:48 | 39.70937 | -75.11381 | 12371 ft | 403 kts | 76° |
| 2026-04-29 23:49 | 39.71697 | -75.07840 | 12972 ft | 407 kts | 76° |
| 2026-04-29 23:49 | 39.73215 | -75.00771 | 14111 ft | 415 kts | 75° |
| 2026-04-29 23:49 | 39.73994 | -74.97126 | 14666 ft | 418 kts | 75° |
| 2026-04-29 23:50 | 39.74762 | -74.93521 | 15196 ft | 421 kts | 75° |
| 2026-04-29 23:50 | 39.75547 | -74.89836 | 15740 ft | 424 kts | 75° |
| 2026-04-29 23:50 | 39.77130 | -74.82372 | 16753 ft | 430 kts | 75° |
| 2026-04-29 23:51 | 39.77928 | -74.78597 | 16913 ft | 433 kts | 75° |
| 2026-04-29 23:51 | 39.78729 | -74.74799 | 16951 ft | 448 kts | 75° |
| 2026-04-29 23:51 | 39.79441 | -74.70825 | 16948 ft | 454 kts | 82° |
| 2026-04-29 23:51 | 39.79804 | -74.66733 | 16952 ft | 455 kts | 85° |
| 2026-04-29 23:52 | 39.80136 | -74.62637 | 16952 ft | 455 kts | 85° |
| 2026-04-29 23:52 | 39.80467 | -74.58594 | 16949 ft | 454 kts | 85° |
| 2026-04-29 23:52 | 39.80807 | -74.54488 | 16950 ft | 454 kts | 85° |
| 2026-04-29 23:52 | 39.81143 | -74.50403 | 16970 ft | 454 kts | 85° |
| 2026-04-29 23:53 | 39.81474 | -74.46325 | 16967 ft | 453 kts | 85° |
| 2026-04-29 23:53 | 39.81730 | -74.42236 | 16966 ft | 452 kts | 90° |
| 2026-04-29 23:53 | 39.81732 | -74.38144 | 16968 ft | 452 kts | 92° |
| 2026-04-29 23:53 | 39.81727 | -74.34102 | 16975 ft | 451 kts | 91° |
| 2026-04-29 23:54 | 39.81723 | -74.30006 | 16977 ft | 451 kts | 91° |
| 2026-04-29 23:54 | 39.81720 | -74.25912 | 16978 ft | 451 kts | 91° |
| 2026-04-29 23:54 | 39.81714 | -74.21869 | 16980 ft | 451 kts | 91° |
| 2026-04-29 23:54 | 39.81705 | -74.17795 | 16977 ft | 450 kts | 91° |
| 2026-04-29 23:55 | 39.81694 | -74.13710 | 16974 ft | 450 kts | 91° |
| 2026-04-29 23:55 | 39.81684 | -74.09628 | 16975 ft | 450 kts | 91° |
| 2026-04-29 23:55 | 39.81671 | -74.05595 | 16969 ft | 450 kts | 91° |
| 2026-04-29 23:55 | 39.81653 | -74.01514 | 16969 ft | 450 kts | 91° |
| 2026-04-29 23:56 | 39.81639 | -73.97473 | 16964 ft | 450 kts | 91° |
| 2026-04-29 23:56 | 39.81624 | -73.93389 | 16966 ft | 450 kts | 91° |
| 2026-04-29 23:56 | 39.81606 | -73.89300 | 16964 ft | 450 kts | 91° |
| 2026-04-29 23:56 | 39.81590 | -73.85227 | 16956 ft | 450 kts | 91° |
| 2026-04-29 23:57 | 39.81569 | -73.81193 | 16959 ft | 450 kts | 91° |
| 2026-04-29 23:57 | 39.81543 | -73.77109 | 16957 ft | 450 kts | 91° |
| 2026-04-29 23:57 | 39.81718 | -73.73095 | 16954 ft | 451 kts | 82° |
| 2026-04-29 23:57 | 39.82429 | -73.69100 | 16953 ft | 452 kts | 72° |
| 2026-04-29 23:58 | 39.83663 | -73.65343 | 16951 ft | 451 kts | 61° |
| 2026-04-29 23:58 | 39.85349 | -73.61944 | 16955 ft | 451 kts | 51° |
| 2026-04-29 23:58 | 39.87337 | -73.58789 | 16797 ft | 441 kts | 49° |
| 2026-04-29 23:58 | 39.89247 | -73.55762 | 16544 ft | 435 kts | 49° |
| 2026-04-29 23:59 | 39.91321 | -73.52905 | 16290 ft | 432 kts | 41° |
| 2026-04-29 23:59 | 39.93548 | -73.50285 | 16038 ft | 431 kts | 41° |
| 2026-04-29 23:59 | 39.95777 | -73.47651 | 15790 ft | 430 kts | 41° |
| 2026-04-29 23:59 | 39.97243 | -73.45916 | 15624 ft | 429 kts | 41° |
| 2026-04-30 00:00 | 40.00177 | -73.42437 | 15361 ft | 427 kts | 41° |
| 2026-04-30 00:00 | 40.02375 | -73.39831 | 15111 ft | 426 kts | 41° |
| 2026-04-30 00:00 | 40.03831 | -73.38105 | 14944 ft | 425 kts | 42° |
| 2026-04-30 00:00 | 40.06017 | -73.35504 | 14705 ft | 423 kts | 42° |
| 2026-04-30 00:01 | 40.08196 | -73.32910 | 14464 ft | 421 kts | 42° |
| 2026-04-30 00:01 | 40.10358 | -73.30337 | 14226 ft | 419 kts | 42° |
| 2026-04-30 00:01 | 40.12489 | -73.27800 | 14001 ft | 417 kts | 43° |
| 2026-04-30 00:01 | 40.14631 | -73.25252 | 13762 ft | 415 kts | 43° |
| 2026-04-30 00:02 | 40.16762 | -73.22715 | 13472 ft | 412 kts | 43° |
| 2026-04-30 00:02 | 40.18885 | -73.20183 | 13183 ft | 410 kts | 43° |
| 2026-04-30 00:02 | 40.20963 | -73.17700 | 12899 ft | 408 kts | 43° |
| 2026-04-30 00:02 | 40.23061 | -73.15183 | 12618 ft | 406 kts | 43° |
| 2026-04-30 00:03 | 40.25142 | -73.12685 | 12329 ft | 404 kts | 43° |
| 2026-04-30 00:03 | 40.27188 | -73.10230 | 12047 ft | 402 kts | 43° |
| 2026-04-30 00:03 | 40.29251 | -73.07758 | 11765 ft | 399 kts | 43° |
| 2026-04-30 00:03 | 40.31300 | -73.05303 | 11496 ft | 397 kts | 42° |
| 2026-04-30 00:04 | 40.33333 | -73.02868 | 11229 ft | 394 kts | 42° |
| 2026-04-30 00:04 | 40.35361 | -73.00436 | 10957 ft | 392 kts | 42° |
| 2026-04-30 00:04 | 40.37346 | -72.98050 | 10696 ft | 390 kts | 42° |
| 2026-04-30 00:04 | 40.39345 | -72.95644 | 10385 ft | 387 kts | 42° |
| 2026-04-30 00:05 | 40.41307 | -72.93290 | 10066 ft | 384 kts | 42° |
| 2026-04-30 00:05 | 40.43258 | -72.90947 | 9704 ft | 368 kts | 42° |
| 2026-04-30 00:05 | 40.45081 | -72.88749 | 9330 ft | 341 kts | 42° |
| 2026-04-30 00:05 | 40.46754 | -72.86729 | 8977 ft | 318 kts | 42° |
| 2026-04-30 00:06 | 40.48335 | -72.84817 | 8615 ft | 300 kts | 43° |
| 2026-04-30 00:06 | 40.49899 | -72.83015 | 8271 ft | 297 kts | 37° |
| 2026-04-30 00:06 | 40.51620 | -72.81593 | 7935 ft | 294 kts | 26° |
| 2026-04-30 00:06 | 40.53499 | -72.80590 | 7662 ft | 290 kts | 16° |
| 2026-04-30 00:07 | 40.55448 | -72.80021 | 7390 ft | 288 kts | 6° |
| 2026-04-30 00:07 | 40.57448 | -72.79876 | 7134 ft | 287 kts | 359° |
| 2026-04-30 00:07 | 40.59446 | -72.79885 | 6892 ft | 286 kts | 359° |
| 2026-04-30 00:07 | 40.60771 | -72.79887 | 6729 ft | 285 kts | 359° |
| 2026-04-30 00:09 | 40.61165 | -72.79888 | 6687 ft | 285 kts | 359° |
| 2026-04-30 00:09 | 40.61857 | -72.79854 | 6556 ft | 284 kts | 5° |
| 2026-04-30 00:09 | 40.63807 | -72.79688 | 6325 ft | 283 kts | 1° |
| 2026-04-30 00:09 | 40.65775 | -72.79654 | 6071 ft | 282 kts | 360° |
| 2026-04-30 00:10 | 40.67738 | -72.79659 | 5817 ft | 281 kts | 359° |
| 2026-04-30 00:10 | 40.69695 | -72.79678 | 5564 ft | 279 kts | 359° |
| 2026-04-30 00:10 | 40.71623 | -72.79701 | 5310 ft | 272 kts | 359° |
| 2026-04-30 00:10 | 40.73500 | -72.79723 | 5090 ft | 265 kts | 359° |
| 2026-04-30 00:11 | 40.75287 | -72.79740 | 5014 ft | 252 kts | 359° |
| 2026-04-30 00:11 | 40.77012 | -72.79756 | 5026 ft | 245 kts | 359° |
| 2026-04-30 00:11 | 40.78695 | -72.79771 | 5004 ft | 234 kts | 359° |
| 2026-04-30 00:11 | 40.80286 | -72.79786 | 4765 ft | 228 kts | 359° |
| 2026-04-30 00:12 | 40.81853 | -72.79799 | 4438 ft | 223 kts | 359° |
| 2026-04-30 00:12 | 40.83398 | -72.79811 | 4130 ft | 221 kts | 359° |
| 2026-04-30 00:12 | 40.84938 | -72.79823 | 3824 ft | 220 kts | 359° |
| 2026-04-30 00:12 | 40.86473 | -72.79835 | 3522 ft | 219 kts | 359° |
| 2026-04-30 00:13 | 40.87981 | -72.79845 | 3227 ft | 218 kts | 360° |
| 2026-04-30 00:13 | 40.89499 | -72.79877 | 2919 ft | 217 kts | 356° |
| 2026-04-30 00:13 | 40.90928 | -72.80477 | 2609 ft | 216 kts | 330° |
| 2026-04-30 00:13 | 40.92010 | -72.81801 | 2310 ft | 215 kts | 304° |
| 2026-04-30 00:14 | 40.92577 | -72.83611 | 2055 ft | 212 kts | 278° |
| 2026-04-30 00:14 | 40.92564 | -72.85556 | 2018 ft | 212 kts | 262° |
| 2026-04-30 00:14 | 40.92428 | -72.87441 | 2010 ft | 201 kts | 263° |
| 2026-04-30 00:14 | 40.92303 | -72.89240 | 2014 ft | 198 kts | 262° |
| 2026-04-30 00:15 | 40.92176 | -72.91043 | 2014 ft | 196 kts | 262° |
| 2026-04-30 00:15 | 40.92000 | -72.92832 | 2017 ft | 194 kts | 253° |
| 2026-04-30 00:15 | 40.91475 | -72.94431 | 2045 ft | 191 kts | 235° |
| 2026-04-30 00:15 | 40.90607 | -72.95751 | 2023 ft | 189 kts | 222° |
| 2026-04-30 00:16 | 40.89709 | -72.96940 | 2006 ft | 173 kts | 222° |
| 2026-04-30 00:16 | 40.88906 | -72.98004 | 2012 ft | 156 kts | 221° |
| 2026-04-30 00:16 | 40.88163 | -72.98985 | 2011 ft | 150 kts | 221° |
| 2026-04-30 00:16 | 40.87429 | -72.99954 | 2004 ft | 148 kts | 221° |
| 2026-04-30 00:17 | 40.86702 | -73.00913 | 1905 ft | 147 kts | 221° |
| 2026-04-30 00:17 | 40.85977 | -73.01870 | 1746 ft | 146 kts | 221° |
| 2026-04-30 00:17 | 40.85264 | -73.02811 | 1561 ft | 146 kts | 221° |
| 2026-04-30 00:17 | 40.84546 | -73.03758 | 1368 ft | 146 kts | 221° |
| 2026-04-30 00:18 | 40.83830 | -73.04704 | 1180 ft | 144 kts | 221° |
| 2026-04-30 00:18 | 40.83180 | -73.05561 | 998 ft | 143 kts | 221° |
| 2026-04-30 00:18 | 40.82434 | -73.06517 | 757 ft | 143 kts | 221° |
| 2026-04-30 00:18 | 40.81734 | -73.07449 | 564 ft | 142 kts | 225° |
| 2026-04-30 00:19 | 40.81050 | -73.08373 | 328 ft | 142 kts | 224° |
| 2026-04-30 00:19 | 40.80352 | -73.09280 | 155 ft | 139 kts | 224° |
| 2026-04-30 00:19 | 40.79686 | -73.10160 | 98 ft | 121 kts | 226° |
| 2026-04-30 00:19 | 40.79309 | -73.10660 | 100 ft | 31 kts | 225° |
| 2026-04-30 00:20 | 40.79220 | -73.10717 | 100 ft | 9 kts | 185° |
| 2026-04-30 00:20 | 40.79149 | -73.10718 | 97 ft | 0 kts | 176° |